sensor_id;sensor_type;location;lat;lon;timestamp;P1;durP1;ratioP1;P2;durP2;ratioP2
9224;SDS011;4647;48.072;11.616;2023-02-18T00:01:42;4.27;;;2.80;;
9224;SDS011;4647;48.072;11.616;2023-02-18T00:04:10;3.67;;;2.73;;
9224;SDS011;4647;48.072;11.616;2023-02-18T00:06:38;4.33;;;2.60;;
9224;SDS011;4647;48.072;11.616;2023-02-18T00:09:07;2.90;;;2.43;;
9224;SDS011;4647;48.072;11.616;2023-02-18T00:11:36;4.60;;;2.93;;
9224;SDS011;4647;48.072;11.616;2023-02-18T00:14:09;5.73;;;2.70;;
9224;SDS011;4647;48.072;11.616;2023-02-18T00:16:42;3.33;;;2.63;;
9224;SDS011;4647;48.072;11.616;2023-02-18T00:19:11;5.10;;;2.87;;
9224;SDS011;4647;48.072;11.616;2023-02-18T00:21:41;3.27;;;2.60;;
9224;SDS011;4647;48.072;11.616;2023-02-18T00:24:10;3.90;;;2.53;;
9224;SDS011;4647;48.072;11.616;2023-02-18T00:26:40;3.50;;;2.70;;
9224;SDS011;4647;48.072;11.616;2023-02-18T00:29:09;4.57;;;2.40;;
9224;SDS011;4647;48.072;11.616;2023-02-18T00:31:38;3.43;;;2.33;;
9224;SDS011;4647;48.072;11.616;2023-02-18T00:34:09;3.87;;;2.57;;
9224;SDS011;4647;48.072;11.616;2023-02-18T00:36:39;3.03;;;2.33;;
9224;SDS011;4647;48.072;11.616;2023-02-18T00:39:08;3.03;;;2.13;;
9224;SDS011;4647;48.072;11.616;2023-02-18T00:41:38;2.47;;;2.10;;
9224;SDS011;4647;48.072;11.616;2023-02-18T00:44:06;5.33;;;2.40;;
9224;SDS011;4647;48.072;11.616;2023-02-18T00:46:35;3.93;;;2.10;;
9224;SDS011;4647;48.072;11.616;2023-02-18T00:49:04;4.47;;;2.27;;
9224;SDS011;4647;48.072;11.616;2023-02-18T00:51:35;3.10;;;2.10;;
9224;SDS011;4647;48.072;11.616;2023-02-18T00:54:04;3.07;;;2.27;;
9224;SDS011;4647;48.072;11.616;2023-02-18T00:56:32;2.60;;;2.40;;
9224;SDS011;4647;48.072;11.616;2023-02-18T00:59:01;4.53;;;2.20;;
9224;SDS011;4647;48.072;11.616;2023-02-18T01:01:30;2.93;;;2.63;;
9224;SDS011;4647;48.072;11.616;2023-02-18T01:03:59;2.87;;;2.40;;
9224;SDS011;4647;48.072;11.616;2023-02-18T01:06:28;3.57;;;2.37;;
9224;SDS011;4647;48.072;11.616;2023-02-18T01:08:59;3.30;;;2.53;;
9224;SDS011;4647;48.072;11.616;2023-02-18T01:11:27;3.43;;;2.30;;
9224;SDS011;4647;48.072;11.616;2023-02-18T01:13:55;4.57;;;2.50;;
9224;SDS011;4647;48.072;11.616;2023-02-18T01:16:24;3.33;;;2.50;;
9224;SDS011;4647;48.072;11.616;2023-02-18T01:18:53;2.53;;;2.27;;
9224;SDS011;4647;48.072;11.616;2023-02-18T01:21:21;2.57;;;2.37;;
9224;SDS011;4647;48.072;11.616;2023-02-18T01:23:50;2.50;;;2.30;;
9224;SDS011;4647;48.072;11.616;2023-02-18T01:26:21;5.23;;;2.60;;
9224;SDS011;4647;48.072;11.616;2023-02-18T01:28:49;4.40;;;2.33;;
9224;SDS011;4647;48.072;11.616;2023-02-18T01:31:17;4.33;;;2.50;;
9224;SDS011;4647;48.072;11.616;2023-02-18T01:33:46;3.97;;;2.63;;
9224;SDS011;4647;48.072;11.616;2023-02-18T01:36:15;2.70;;;2.47;;
9224;SDS011;4647;48.072;11.616;2023-02-18T01:38:45;3.77;;;2.70;;
9224;SDS011;4647;48.072;11.616;2023-02-18T01:41:13;3.77;;;2.40;;
9224;SDS011;4647;48.072;11.616;2023-02-18T01:43:44;3.10;;;2.43;;
9224;SDS011;4647;48.072;11.616;2023-02-18T01:46:14;4.43;;;2.53;;
9224;SDS011;4647;48.072;11.616;2023-02-18T01:48:46;5.03;;;2.60;;
9224;SDS011;4647;48.072;11.616;2023-02-18T01:51:19;3.53;;;2.70;;
9224;SDS011;4647;48.072;11.616;2023-02-18T01:53:52;3.37;;;2.47;;
9224;SDS011;4647;48.072;11.616;2023-02-18T01:56:24;3.07;;;2.37;;
9224;SDS011;4647;48.072;11.616;2023-02-18T01:59:01;3.43;;;2.40;;
9224;SDS011;4647;48.072;11.616;2023-02-18T02:01:36;2.60;;;2.37;;
9224;SDS011;4647;48.072;11.616;2023-02-18T02:04:08;2.47;;;2.10;;
9224;SDS011;4647;48.072;11.616;2023-02-18T02:06:36;2.80;;;2.10;;
9224;SDS011;4647;48.072;11.616;2023-02-18T02:09:06;3.33;;;2.30;;
9224;SDS011;4647;48.072;11.616;2023-02-18T02:11:43;3.33;;;2.30;;
9224;SDS011;4647;48.072;11.616;2023-02-18T02:14:28;4.03;;;2.20;;
9224;SDS011;4647;48.072;11.616;2023-02-18T02:17:09;2.53;;;2.20;;
9224;SDS011;4647;48.072;11.616;2023-02-18T02:19:57;2.83;;;1.93;;
9224;SDS011;4647;48.072;11.616;2023-02-18T02:22:58;3.60;;;2.00;;
9224;SDS011;4647;48.072;11.616;2023-02-18T02:25:57;3.03;;;2.00;;
9224;SDS011;4647;48.072;11.616;2023-02-18T02:28:58;2.20;;;2.00;;
9224;SDS011;4647;48.072;11.616;2023-02-18T02:31:49;5.07;;;1.97;;
9224;SDS011;4647;48.072;11.616;2023-02-18T02:34:36;4.43;;;2.00;;
9224;SDS011;4647;48.072;11.616;2023-02-18T02:37:12;3.63;;;1.70;;
9224;SDS011;4647;48.072;11.616;2023-02-18T02:39:46;2.10;;;1.73;;
9224;SDS011;4647;48.072;11.616;2023-02-18T02:42:25;1.93;;;1.73;;
9224;SDS011;4647;48.072;11.616;2023-02-18T02:45:03;2.80;;;1.90;;
9224;SDS011;4647;48.072;11.616;2023-02-18T02:47:40;2.73;;;1.97;;
9224;SDS011;4647;48.072;11.616;2023-02-18T02:50:16;2.03;;;1.83;;
9224;SDS011;4647;48.072;11.616;2023-02-18T02:52:48;2.20;;;1.80;;
9224;SDS011;4647;48.072;11.616;2023-02-18T02:55:20;2.33;;;1.87;;
9224;SDS011;4647;48.072;11.616;2023-02-18T02:57:49;2.47;;;1.80;;
9224;SDS011;4647;48.072;11.616;2023-02-18T03:00:20;2.60;;;2.03;;
9224;SDS011;4647;48.072;11.616;2023-02-18T03:03:01;2.10;;;1.60;;
9224;SDS011;4647;48.072;11.616;2023-02-18T03:05:50;2.63;;;1.67;;
9224;SDS011;4647;48.072;11.616;2023-02-18T03:08:35;2.37;;;1.80;;
9224;SDS011;4647;48.072;11.616;2023-02-18T03:11:09;2.10;;;1.90;;
9224;SDS011;4647;48.072;11.616;2023-02-18T03:13:46;2.07;;;1.70;;
9224;SDS011;4647;48.072;11.616;2023-02-18T03:16:25;2.70;;;1.83;;
9224;SDS011;4647;48.072;11.616;2023-02-18T03:19:01;1.93;;;1.73;;
9224;SDS011;4647;48.072;11.616;2023-02-18T03:21:38;2.20;;;1.73;;
9224;SDS011;4647;48.072;11.616;2023-02-18T03:24:12;1.87;;;1.73;;
9224;SDS011;4647;48.072;11.616;2023-02-18T03:26:46;2.23;;;1.50;;
9224;SDS011;4647;48.072;11.616;2023-02-18T03:29:17;2.17;;;1.60;;
9224;SDS011;4647;48.072;11.616;2023-02-18T03:31:48;1.90;;;1.70;;
9224;SDS011;4647;48.072;11.616;2023-02-18T03:34:22;3.47;;;1.80;;
9224;SDS011;4647;48.072;11.616;2023-02-18T03:36:56;2.70;;;1.73;;
9224;SDS011;4647;48.072;11.616;2023-02-18T03:39:27;2.03;;;1.87;;
9224;SDS011;4647;48.072;11.616;2023-02-18T03:41:57;2.70;;;1.77;;
9224;SDS011;4647;48.072;11.616;2023-02-18T03:44:25;1.80;;;1.50;;
9224;SDS011;4647;48.072;11.616;2023-02-18T03:46:54;3.67;;;1.60;;
9224;SDS011;4647;48.072;11.616;2023-02-18T03:49:22;2.30;;;1.60;;
9224;SDS011;4647;48.072;11.616;2023-02-18T03:51:51;2.07;;;1.60;;
9224;SDS011;4647;48.072;11.616;2023-02-18T03:54:22;2.33;;;1.60;;
9224;SDS011;4647;48.072;11.616;2023-02-18T03:56:51;2.60;;;1.70;;
9224;SDS011;4647;48.072;11.616;2023-02-18T03:59:19;1.60;;;1.50;;
9224;SDS011;4647;48.072;11.616;2023-02-18T04:01:47;2.43;;;1.73;;
9224;SDS011;4647;48.072;11.616;2023-02-18T04:04:16;3.30;;;2.00;;
9224;SDS011;4647;48.072;11.616;2023-02-18T04:06:44;2.80;;;1.83;;
9224;SDS011;4647;48.072;11.616;2023-02-18T04:09:15;1.90;;;1.80;;
9224;SDS011;4647;48.072;11.616;2023-02-18T04:11:46;2.17;;;1.77;;
9224;SDS011;4647;48.072;11.616;2023-02-18T04:14:15;1.90;;;1.77;;
9224;SDS011;4647;48.072;11.616;2023-02-18T04:16:44;2.13;;;1.80;;
9224;SDS011;4647;48.072;11.616;2023-02-18T04:19:12;2.27;;;2.00;;
9224;SDS011;4647;48.072;11.616;2023-02-18T04:21:41;2.83;;;1.80;;
9224;SDS011;4647;48.072;11.616;2023-02-18T04:24:09;2.17;;;1.80;;
9224;SDS011;4647;48.072;11.616;2023-02-18T04:26:37;2.20;;;2.00;;
9224;SDS011;4647;48.072;11.616;2023-02-18T04:29:08;2.87;;;2.10;;
9224;SDS011;4647;48.072;11.616;2023-02-18T04:31:37;3.07;;;1.90;;
9224;SDS011;4647;48.072;11.616;2023-02-18T04:34:05;1.70;;;1.60;;
9224;SDS011;4647;48.072;11.616;2023-02-18T04:36:34;1.63;;;1.53;;
9224;SDS011;4647;48.072;11.616;2023-02-18T04:39:03;1.60;;;1.50;;
9224;SDS011;4647;48.072;11.616;2023-02-18T04:41:31;1.70;;;1.60;;
9224;SDS011;4647;48.072;11.616;2023-02-18T04:43:59;2.40;;;1.77;;
9224;SDS011;4647;48.072;11.616;2023-02-18T04:46:31;1.90;;;1.60;;
9224;SDS011;4647;48.072;11.616;2023-02-18T04:48:59;2.27;;;1.77;;
9224;SDS011;4647;48.072;11.616;2023-02-18T04:51:28;1.73;;;1.60;;
9224;SDS011;4647;48.072;11.616;2023-02-18T04:53:57;1.60;;;1.50;;
9224;SDS011;4647;48.072;11.616;2023-02-18T04:56:25;2.20;;;1.70;;
9224;SDS011;4647;48.072;11.616;2023-02-18T04:58:54;2.27;;;1.50;;
9224;SDS011;4647;48.072;11.616;2023-02-18T05:01:22;1.63;;;1.53;;
9224;SDS011;4647;48.072;11.616;2023-02-18T05:03:53;1.60;;;1.50;;
9224;SDS011;4647;48.072;11.616;2023-02-18T05:06:21;1.77;;;1.60;;
9224;SDS011;4647;48.072;11.616;2023-02-18T05:08:50;1.63;;;1.50;;
9224;SDS011;4647;48.072;11.616;2023-02-18T05:11:18;1.73;;;1.50;;
9224;SDS011;4647;48.072;11.616;2023-02-18T05:13:47;1.80;;;1.70;;
9224;SDS011;4647;48.072;11.616;2023-02-18T05:16:15;1.70;;;1.30;;
9224;SDS011;4647;48.072;11.616;2023-02-18T05:18:44;2.17;;;1.50;;
9224;SDS011;4647;48.072;11.616;2023-02-18T05:21:15;1.93;;;1.50;;
9224;SDS011;4647;48.072;11.616;2023-02-18T05:23:43;2.33;;;1.50;;
9224;SDS011;4647;48.072;11.616;2023-02-18T05:26:12;1.70;;;1.30;;
9224;SDS011;4647;48.072;11.616;2023-02-18T05:28:40;1.50;;;1.40;;
9224;SDS011;4647;48.072;11.616;2023-02-18T05:31:09;1.80;;;1.20;;
9224;SDS011;4647;48.072;11.616;2023-02-18T05:33:37;2.53;;;1.70;;
9224;SDS011;4647;48.072;11.616;2023-02-18T05:36:06;3.40;;;1.50;;
9224;SDS011;4647;48.072;11.616;2023-02-18T05:38:37;1.30;;;1.20;;
9224;SDS011;4647;48.072;11.616;2023-02-18T05:41:06;1.20;;;1.10;;
9224;SDS011;4647;48.072;11.616;2023-02-18T05:43:35;1.20;;;1.10;;
9224;SDS011;4647;48.072;11.616;2023-02-18T05:46:23;1.43;;;1.33;;
9224;SDS011;4647;48.072;11.616;2023-02-18T05:48:52;2.00;;;1.43;;
9224;SDS011;4647;48.072;11.616;2023-02-18T05:51:21;1.33;;;1.23;;
9224;SDS011;4647;48.072;11.616;2023-02-18T05:53:52;2.93;;;1.60;;
9224;SDS011;4647;48.072;11.616;2023-02-18T05:56:20;1.63;;;1.20;;
9224;SDS011;4647;48.072;11.616;2023-02-18T05:58:49;2.03;;;1.40;;
9224;SDS011;4647;48.072;11.616;2023-02-18T06:01:18;1.60;;;1.50;;
9224;SDS011;4647;48.072;11.616;2023-02-18T06:03:46;2.03;;;1.40;;
9224;SDS011;4647;48.072;11.616;2023-02-18T06:06:14;2.40;;;1.60;;
9224;SDS011;4647;48.072;11.616;2023-02-18T06:08:43;1.30;;;1.20;;
9224;SDS011;4647;48.072;11.616;2023-02-18T06:11:14;1.50;;;1.30;;
9224;SDS011;4647;48.072;11.616;2023-02-18T06:13:42;1.67;;;1.50;;
9224;SDS011;4647;48.072;11.616;2023-02-18T06:16:11;1.60;;;1.50;;
9224;SDS011;4647;48.072;11.616;2023-02-18T06:18:39;1.57;;;1.20;;
9224;SDS011;4647;48.072;11.616;2023-02-18T06:21:08;1.50;;;1.40;;
9224;SDS011;4647;48.072;11.616;2023-02-18T06:23:36;1.50;;;1.40;;
9224;SDS011;4647;48.072;11.616;2023-02-18T06:26:05;2.10;;;1.67;;
9224;SDS011;4647;48.072;11.616;2023-02-18T06:28:36;1.63;;;1.20;;
9224;SDS011;4647;48.072;11.616;2023-02-18T06:31:04;1.70;;;1.60;;
9224;SDS011;4647;48.072;11.616;2023-02-18T06:33:33;1.57;;;1.37;;
9224;SDS011;4647;48.072;11.616;2023-02-18T06:36:02;1.77;;;1.43;;
9224;SDS011;4647;48.072;11.616;2023-02-18T06:38:35;1.40;;;1.13;;
9224;SDS011;4647;48.072;11.616;2023-02-18T06:41:06;1.40;;;1.30;;
9224;SDS011;4647;48.072;11.616;2023-02-18T06:43:37;1.87;;;1.40;;
9224;SDS011;4647;48.072;11.616;2023-02-18T06:46:06;1.20;;;1.10;;
9224;SDS011;4647;48.072;11.616;2023-02-18T06:48:34;1.57;;;1.20;;
9224;SDS011;4647;48.072;11.616;2023-02-18T06:51:03;3.40;;;2.10;;
9224;SDS011;4647;48.072;11.616;2023-02-18T06:53:32;1.57;;;1.30;;
9224;SDS011;4647;48.072;11.616;2023-02-18T06:56:01;3.00;;;1.30;;
9224;SDS011;4647;48.072;11.616;2023-02-18T06:58:29;5.13;;;1.40;;
9224;SDS011;4647;48.072;11.616;2023-02-18T07:01:00;1.30;;;1.20;;
9224;SDS011;4647;48.072;11.616;2023-02-18T07:03:29;1.70;;;1.20;;
9224;SDS011;4647;48.072;11.616;2023-02-18T07:05:57;1.30;;;1.10;;
9224;SDS011;4647;48.072;11.616;2023-02-18T07:08:26;2.37;;;1.00;;
9224;SDS011;4647;48.072;11.616;2023-02-18T07:10:55;1.27;;;1.00;;
9224;SDS011;4647;48.072;11.616;2023-02-18T07:13:23;1.23;;;1.10;;
9224;SDS011;4647;48.072;11.616;2023-02-18T07:15:52;1.20;;;1.10;;
9224;SDS011;4647;48.072;11.616;2023-02-18T07:18:23;2.07;;;1.10;;
9224;SDS011;4647;48.072;11.616;2023-02-18T07:20:51;1.17;;;1.07;;
9224;SDS011;4647;48.072;11.616;2023-02-18T07:23:19;1.27;;;1.17;;
9224;SDS011;4647;48.072;11.616;2023-02-18T07:25:48;1.27;;;0.93;;
9224;SDS011;4647;48.072;11.616;2023-02-18T07:28:16;1.10;;;1.00;;
9224;SDS011;4647;48.072;11.616;2023-02-18T07:30:45;1.20;;;1.07;;
9224;SDS011;4647;48.072;11.616;2023-02-18T07:33:13;1.30;;;1.10;;
9224;SDS011;4647;48.072;11.616;2023-02-18T07:35:44;1.20;;;1.07;;
9224;SDS011;4647;48.072;11.616;2023-02-18T07:38:13;1.03;;;0.93;;
9224;SDS011;4647;48.072;11.616;2023-02-18T07:40:41;1.70;;;1.10;;
9224;SDS011;4647;48.072;11.616;2023-02-18T07:43:12;1.33;;;0.90;;
9224;SDS011;4647;48.072;11.616;2023-02-18T07:45:40;1.07;;;0.97;;
9224;SDS011;4647;48.072;11.616;2023-02-18T07:48:09;2.87;;;1.90;;
9224;SDS011;4647;48.072;11.616;2023-02-18T07:50:38;2.10;;;1.30;;
9224;SDS011;4647;48.072;11.616;2023-02-18T07:53:09;1.30;;;1.10;;
9224;SDS011;4647;48.072;11.616;2023-02-18T07:55:38;1.10;;;1.00;;
9224;SDS011;4647;48.072;11.616;2023-02-18T07:58:16;1.83;;;1.03;;
9224;SDS011;4647;48.072;11.616;2023-02-18T08:00:45;1.40;;;1.00;;
9224;SDS011;4647;48.072;11.616;2023-02-18T08:03:15;1.97;;;1.20;;
9224;SDS011;4647;48.072;11.616;2023-02-18T08:05:46;0.90;;;0.90;;
9224;SDS011;4647;48.072;11.616;2023-02-18T08:08:18;1.50;;;1.00;;
9224;SDS011;4647;48.072;11.616;2023-02-18T08:10:49;1.70;;;1.00;;
9224;SDS011;4647;48.072;11.616;2023-02-18T08:13:18;1.00;;;0.90;;
9224;SDS011;4647;48.072;11.616;2023-02-18T08:15:47;1.20;;;1.00;;
9224;SDS011;4647;48.072;11.616;2023-02-18T08:18:16;1.57;;;1.00;;
9224;SDS011;4647;48.072;11.616;2023-02-18T08:20:46;1.10;;;0.97;;
9224;SDS011;4647;48.072;11.616;2023-02-18T08:23:18;1.10;;;1.00;;
9224;SDS011;4647;48.072;11.616;2023-02-18T08:25:50;1.13;;;1.00;;
9224;SDS011;4647;48.072;11.616;2023-02-18T08:28:21;1.17;;;1.07;;
9224;SDS011;4647;48.072;11.616;2023-02-18T08:30:51;1.13;;;1.00;;
9224;SDS011;4647;48.072;11.616;2023-02-18T08:33:21;1.00;;;0.90;;
9224;SDS011;4647;48.072;11.616;2023-02-18T08:35:50;2.27;;;0.93;;
9224;SDS011;4647;48.072;11.616;2023-02-18T08:38:22;1.00;;;0.90;;
9224;SDS011;4647;48.072;11.616;2023-02-18T08:40:59;1.10;;;1.00;;
9224;SDS011;4647;48.072;11.616;2023-02-18T08:43:28;1.40;;;1.20;;
9224;SDS011;4647;48.072;11.616;2023-02-18T08:45:57;1.70;;;1.03;;
9224;SDS011;4647;48.072;11.616;2023-02-18T08:48:26;4.43;;;1.23;;
9224;SDS011;4647;48.072;11.616;2023-02-18T08:50:56;1.10;;;0.90;;
9224;SDS011;4647;48.072;11.616;2023-02-18T08:53:27;3.43;;;1.23;;
9224;SDS011;4647;48.072;11.616;2023-02-18T08:55:55;2.77;;;1.87;;
9224;SDS011;4647;48.072;11.616;2023-02-18T08:58:24;3.97;;;2.63;;
9224;SDS011;4647;48.072;11.616;2023-02-18T09:00:52;3.53;;;2.30;;
9224;SDS011;4647;48.072;11.616;2023-02-18T09:03:20;1.60;;;1.20;;
9224;SDS011;4647;48.072;11.616;2023-02-18T09:05:51;2.67;;;1.20;;
9224;SDS011;4647;48.072;11.616;2023-02-18T09:08:19;2.87;;;1.30;;
9224;SDS011;4647;48.072;11.616;2023-02-18T09:10:50;1.17;;;1.07;;
9224;SDS011;4647;48.072;11.616;2023-02-18T09:13:22;2.70;;;1.30;;
9224;SDS011;4647;48.072;11.616;2023-02-18T09:15:58;1.30;;;1.20;;
9224;SDS011;4647;48.072;11.616;2023-02-18T09:18:28;1.80;;;1.20;;
9224;SDS011;4647;48.072;11.616;2023-02-18T09:20:57;2.70;;;1.50;;
9224;SDS011;4647;48.072;11.616;2023-02-18T09:23:27;2.77;;;1.30;;
9224;SDS011;4647;48.072;11.616;2023-02-18T09:26:02;2.90;;;1.20;;
9224;SDS011;4647;48.072;11.616;2023-02-18T09:28:32;2.40;;;1.33;;
9224;SDS011;4647;48.072;11.616;2023-02-18T09:31:02;3.73;;;1.33;;
9224;SDS011;4647;48.072;11.616;2023-02-18T09:33:33;1.33;;;1.20;;
9224;SDS011;4647;48.072;11.616;2023-02-18T09:36:02;4.20;;;1.30;;
9224;SDS011;4647;48.072;11.616;2023-02-18T09:38:32;3.43;;;1.20;;
9224;SDS011;4647;48.072;11.616;2023-02-18T09:43:54;1.50;;;1.20;;
9224;SDS011;4647;48.072;11.616;2023-02-18T09:46:27;1.37;;;1.20;;
9224;SDS011;4647;48.072;11.616;2023-02-18T09:48:59;2.30;;;1.33;;
9224;SDS011;4647;48.072;11.616;2023-02-18T09:51:30;2.63;;;1.33;;
9224;SDS011;4647;48.072;11.616;2023-02-18T09:53:59;1.77;;;1.13;;
9224;SDS011;4647;48.072;11.616;2023-02-18T09:56:31;1.43;;;1.20;;
9224;SDS011;4647;48.072;11.616;2023-02-18T09:59:02;2.33;;;1.20;;
9224;SDS011;4647;48.072;11.616;2023-02-18T10:01:35;2.83;;;1.13;;
9224;SDS011;4647;48.072;11.616;2023-02-18T10:04:06;3.13;;;1.70;;
9224;SDS011;4647;48.072;11.616;2023-02-18T10:06:42;2.30;;;1.40;;
9224;SDS011;4647;48.072;11.616;2023-02-18T10:09:15;2.57;;;1.50;;
9224;SDS011;4647;48.072;11.616;2023-02-18T10:11:50;5.20;;;2.23;;
9224;SDS011;4647;48.072;11.616;2023-02-18T10:14:22;2.17;;;1.30;;
9224;SDS011;4647;48.072;11.616;2023-02-18T10:16:54;2.87;;;1.40;;
9224;SDS011;4647;48.072;11.616;2023-02-18T10:19:27;1.80;;;1.20;;
9224;SDS011;4647;48.072;11.616;2023-02-18T10:22:00;2.90;;;1.30;;
9224;SDS011;4647;48.072;11.616;2023-02-18T10:24:31;1.43;;;1.10;;
9224;SDS011;4647;48.072;11.616;2023-02-18T10:27:06;4.43;;;1.23;;
9224;SDS011;4647;48.072;11.616;2023-02-18T10:29:35;3.60;;;0.93;;
9224;SDS011;4647;48.072;11.616;2023-02-18T10:32:05;4.10;;;1.30;;
9224;SDS011;4647;48.072;11.616;2023-02-18T10:34:44;1.67;;;1.40;;
9224;SDS011;4647;48.072;11.616;2023-02-18T10:37:21;2.00;;;0.90;;
9224;SDS011;4647;48.072;11.616;2023-02-18T10:40:07;4.13;;;1.20;;
9224;SDS011;4647;48.072;11.616;2023-02-18T10:42:46;1.47;;;1.00;;
9224;SDS011;4647;48.072;11.616;2023-02-18T10:45:27;1.00;;;0.93;;
9224;SDS011;4647;48.072;11.616;2023-02-18T10:48:07;2.73;;;1.07;;
9224;SDS011;4647;48.072;11.616;2023-02-18T10:50:48;1.77;;;1.00;;
9224;SDS011;4647;48.072;11.616;2023-02-18T10:53:17;1.93;;;1.10;;
9224;SDS011;4647;48.072;11.616;2023-02-18T10:55:57;1.30;;;0.97;;
9224;SDS011;4647;48.072;11.616;2023-02-18T10:58:30;4.57;;;1.23;;
9224;SDS011;4647;48.072;11.616;2023-02-18T11:01:02;4.23;;;1.30;;
9224;SDS011;4647;48.072;11.616;2023-02-18T11:03:40;2.33;;;1.17;;
9224;SDS011;4647;48.072;11.616;2023-02-18T11:06:18;1.47;;;0.90;;
9224;SDS011;4647;48.072;11.616;2023-02-18T11:08:49;2.63;;;1.27;;
9224;SDS011;4647;48.072;11.616;2023-02-18T11:11:21;1.60;;;1.20;;
9224;SDS011;4647;48.072;11.616;2023-02-18T11:13:55;2.37;;;1.30;;
9224;SDS011;4647;48.072;11.616;2023-02-18T11:16:35;1.60;;;1.30;;
9224;SDS011;4647;48.072;11.616;2023-02-18T11:19:04;1.47;;;1.10;;
9224;SDS011;4647;48.072;11.616;2023-02-18T11:21:53;2.10;;;1.10;;
9224;SDS011;4647;48.072;11.616;2023-02-18T11:24:37;2.30;;;1.20;;
9224;SDS011;4647;48.072;11.616;2023-02-18T11:27:12;4.77;;;1.20;;
9224;SDS011;4647;48.072;11.616;2023-02-18T11:29:52;1.40;;;1.20;;
9224;SDS011;4647;48.072;11.616;2023-02-18T11:32:25;1.23;;;1.10;;
9224;SDS011;4647;48.072;11.616;2023-02-18T11:34:55;1.30;;;1.10;;
9224;SDS011;4647;48.072;11.616;2023-02-18T11:37:24;3.87;;;1.30;;
9224;SDS011;4647;48.072;11.616;2023-02-18T11:39:53;2.23;;;1.20;;
9224;SDS011;4647;48.072;11.616;2023-02-18T11:42:23;3.40;;;1.20;;
9224;SDS011;4647;48.072;11.616;2023-02-18T11:44:57;2.07;;;1.20;;
9224;SDS011;4647;48.072;11.616;2023-02-18T11:47:27;2.43;;;1.20;;
9224;SDS011;4647;48.072;11.616;2023-02-18T11:50:09;3.23;;;1.30;;
9224;SDS011;4647;48.072;11.616;2023-02-18T11:52:43;1.10;;;1.00;;
9224;SDS011;4647;48.072;11.616;2023-02-18T11:55:17;1.67;;;1.10;;
9224;SDS011;4647;48.072;11.616;2023-02-18T11:57:48;3.17;;;0.97;;
9224;SDS011;4647;48.072;11.616;2023-02-18T12:00:31;2.17;;;1.20;;
9224;SDS011;4647;48.072;11.616;2023-02-18T12:03:06;1.30;;;1.07;;
9224;SDS011;4647;48.072;11.616;2023-02-18T12:05:42;1.30;;;1.00;;
9224;SDS011;4647;48.072;11.616;2023-02-18T12:08:13;1.80;;;1.13;;
9224;SDS011;4647;48.072;11.616;2023-02-18T12:10:46;1.37;;;1.20;;
9224;SDS011;4647;48.072;11.616;2023-02-18T12:13:20;3.13;;;1.20;;
9224;SDS011;4647;48.072;11.616;2023-02-18T12:15:58;1.50;;;1.07;;
9224;SDS011;4647;48.072;11.616;2023-02-18T12:21:36;5.87;;;1.30;;
9224;SDS011;4647;48.072;11.616;2023-02-18T12:24:17;1.17;;;0.97;;
9224;SDS011;4647;48.072;11.616;2023-02-18T12:27:02;3.27;;;1.33;;
9224;SDS011;4647;48.072;11.616;2023-02-18T12:29:45;1.20;;;1.10;;
9224;SDS011;4647;48.072;11.616;2023-02-18T12:32:33;2.53;;;1.20;;
9224;SDS011;4647;48.072;11.616;2023-02-18T12:35:14;1.40;;;1.20;;
9224;SDS011;4647;48.072;11.616;2023-02-18T12:41:08;2.07;;;1.20;;
9224;SDS011;4647;48.072;11.616;2023-02-18T12:43:47;1.73;;;1.20;;
9224;SDS011;4647;48.072;11.616;2023-02-18T12:46:31;1.47;;;1.30;;
9224;SDS011;4647;48.072;11.616;2023-02-18T12:52:16;1.63;;;1.10;;
9224;SDS011;4647;48.072;11.616;2023-02-18T12:55:09;2.73;;;1.33;;
9224;SDS011;4647;48.072;11.616;2023-02-18T12:57:51;3.40;;;1.10;;
9224;SDS011;4647;48.072;11.616;2023-02-18T13:00:35;1.40;;;1.20;;
9224;SDS011;4647;48.072;11.616;2023-02-18T13:06:22;1.30;;;1.20;;
9224;SDS011;4647;48.072;11.616;2023-02-18T13:09:06;2.90;;;1.37;;
9224;SDS011;4647;48.072;11.616;2023-02-18T13:11:41;1.70;;;1.40;;
9224;SDS011;4647;48.072;11.616;2023-02-18T13:14:17;1.20;;;1.10;;
9224;SDS011;4647;48.072;11.616;2023-02-18T13:16:49;1.80;;;1.27;;
9224;SDS011;4647;48.072;11.616;2023-02-18T13:19:20;1.90;;;1.20;;
9224;SDS011;4647;48.072;11.616;2023-02-18T13:21:54;1.33;;;1.13;;
9224;SDS011;4647;48.072;11.616;2023-02-18T13:24:29;1.30;;;1.13;;
9224;SDS011;4647;48.072;11.616;2023-02-18T13:27:04;1.43;;;1.00;;
9224;SDS011;4647;48.072;11.616;2023-02-18T13:29:43;2.67;;;1.20;;
9224;SDS011;4647;48.072;11.616;2023-02-18T13:32:18;1.67;;;1.20;;
9224;SDS011;4647;48.072;11.616;2023-02-18T13:34:54;1.53;;;1.20;;
9224;SDS011;4647;48.072;11.616;2023-02-18T13:37:34;1.20;;;1.10;;
9224;SDS011;4647;48.072;11.616;2023-02-18T13:40:13;3.07;;;1.17;;
9224;SDS011;4647;48.072;11.616;2023-02-18T13:42:47;3.20;;;2.00;;
9224;SDS011;4647;48.072;11.616;2023-02-18T13:45:22;2.70;;;1.43;;
9224;SDS011;4647;48.072;11.616;2023-02-18T13:47:54;7.10;;;4.27;;
9224;SDS011;4647;48.072;11.616;2023-02-18T13:50:30;2.73;;;1.30;;
9224;SDS011;4647;48.072;11.616;2023-02-18T13:53:25;1.63;;;1.27;;
9224;SDS011;4647;48.072;11.616;2023-02-18T13:56:02;1.20;;;1.07;;
9224;SDS011;4647;48.072;11.616;2023-02-18T13:58:35;1.27;;;1.00;;
9224;SDS011;4647;48.072;11.616;2023-02-18T14:01:13;2.53;;;1.40;;
9224;SDS011;4647;48.072;11.616;2023-02-18T14:03:51;4.20;;;2.17;;
9224;SDS011;4647;48.072;11.616;2023-02-18T14:06:22;1.43;;;1.30;;
9224;SDS011;4647;48.072;11.616;2023-02-18T14:09:03;1.30;;;1.20;;
9224;SDS011;4647;48.072;11.616;2023-02-18T14:11:48;1.57;;;1.20;;
9224;SDS011;4647;48.072;11.616;2023-02-18T14:17:27;2.90;;;1.30;;
9224;SDS011;4647;48.072;11.616;2023-02-18T14:22:59;1.50;;;1.40;;
9224;SDS011;4647;48.072;11.616;2023-02-18T14:25:38;2.97;;;1.60;;
9224;SDS011;4647;48.072;11.616;2023-02-18T14:31:15;2.80;;;1.20;;
9224;SDS011;4647;48.072;11.616;2023-02-18T14:33:54;2.07;;;1.40;;
9224;SDS011;4647;48.072;11.616;2023-02-18T14:36:49;2.83;;;1.40;;
9224;SDS011;4647;48.072;11.616;2023-02-18T14:39:36;1.97;;;1.60;;
9224;SDS011;4647;48.072;11.616;2023-02-18T14:42:21;2.63;;;1.40;;
9224;SDS011;4647;48.072;11.616;2023-02-18T14:45:02;1.67;;;1.40;;
9224;SDS011;4647;48.072;11.616;2023-02-18T14:47:44;2.97;;;1.27;;
9224;SDS011;4647;48.072;11.616;2023-02-18T14:50:22;2.47;;;1.40;;
9224;SDS011;4647;48.072;11.616;2023-02-18T14:52:52;1.50;;;1.40;;
9224;SDS011;4647;48.072;11.616;2023-02-18T14:55:25;2.43;;;1.60;;
9224;SDS011;4647;48.072;11.616;2023-02-18T14:57:59;3.13;;;1.50;;
9224;SDS011;4647;48.072;11.616;2023-02-18T15:00:32;1.90;;;1.40;;
9224;SDS011;4647;48.072;11.616;2023-02-18T15:03:02;2.60;;;1.50;;
9224;SDS011;4647;48.072;11.616;2023-02-18T15:05:31;2.07;;;1.40;;
9224;SDS011;4647;48.072;11.616;2023-02-18T15:08:05;3.67;;;1.60;;
9224;SDS011;4647;48.072;11.616;2023-02-18T15:10:42;1.70;;;1.30;;
9224;SDS011;4647;48.072;11.616;2023-02-18T15:13:16;2.77;;;1.50;;
9224;SDS011;4647;48.072;11.616;2023-02-18T15:15:48;2.70;;;1.40;;
9224;SDS011;4647;48.072;11.616;2023-02-18T15:18:20;1.47;;;1.37;;
9224;SDS011;4647;48.072;11.616;2023-02-18T15:20:54;1.47;;;1.30;;
9224;SDS011;4647;48.072;11.616;2023-02-18T15:23:23;4.63;;;1.40;;
9224;SDS011;4647;48.072;11.616;2023-02-18T15:25:51;2.73;;;1.37;;
9224;SDS011;4647;48.072;11.616;2023-02-18T15:28:25;3.00;;;1.20;;
9224;SDS011;4647;48.072;11.616;2023-02-18T15:30:55;1.40;;;1.20;;
9224;SDS011;4647;48.072;11.616;2023-02-18T15:33:25;4.63;;;1.30;;
9224;SDS011;4647;48.072;11.616;2023-02-18T15:35:59;1.53;;;1.20;;
9224;SDS011;4647;48.072;11.616;2023-02-18T15:38:28;1.30;;;1.20;;
9224;SDS011;4647;48.072;11.616;2023-02-18T15:40:56;2.17;;;1.00;;
9224;SDS011;4647;48.072;11.616;2023-02-18T15:43:29;1.10;;;1.00;;
9224;SDS011;4647;48.072;11.616;2023-02-18T15:46:11;3.20;;;1.20;;
9224;SDS011;4647;48.072;11.616;2023-02-18T15:48:42;1.60;;;1.17;;
9224;SDS011;4647;48.072;11.616;2023-02-18T15:51:13;2.67;;;0.87;;
9224;SDS011;4647;48.072;11.616;2023-02-18T15:53:46;3.47;;;1.10;;
9224;SDS011;4647;48.072;11.616;2023-02-18T15:56:19;2.10;;;1.20;;
9224;SDS011;4647;48.072;11.616;2023-02-18T15:58:53;2.27;;;1.20;;